sensor_id;sensor_type;location;lat;lon;timestamp;temperature;humidity
29817;DHT22;16805;52.956;5.906;2024-01-06T00:00:25;3.50;99.90
29817;DHT22;16805;52.956;5.906;2024-01-06T00:03:12;3.50;99.90
29817;DHT22;16805;52.956;5.906;2024-01-06T00:06:02;3.40;99.90
29817;DHT22;16805;52.956;5.906;2024-01-06T00:08:37;3.40;99.90
29817;DHT22;16805;52.956;5.906;2024-01-06T00:11:12;3.40;99.90
29817;DHT22;16805;52.956;5.906;2024-01-06T00:14:10;3.40;99.90
29817;DHT22;16805;52.956;5.906;2024-01-06T00:17:05;3.40;99.90
29817;DHT22;16805;52.956;5.906;2024-01-06T00:19:58;3.30;99.90
29817;DHT22;16805;52.956;5.906;2024-01-06T00:22:38;3.30;99.90
29817;DHT22;16805;52.956;5.906;2024-01-06T00:25:09;3.30;99.90
29817;DHT22;16805;52.956;5.906;2024-01-06T00:27:52;3.30;99.90
29817;DHT22;16805;52.956;5.906;2024-01-06T00:30:24;3.30;99.90
29817;DHT22;16805;52.956;5.906;2024-01-06T00:57:12;3.20;99.90
29817;DHT22;16805;52.956;5.906;2024-01-06T00:59:47;3.10;99.90
29817;DHT22;16805;52.956;5.906;2024-01-06T01:02:40;3.10;99.90
29817;DHT22;16805;52.956;5.906;2024-01-06T01:05:15;3.10;99.90
29817;DHT22;16805;52.956;5.906;2024-01-06T01:07:59;3.10;99.90
29817;DHT22;16805;52.956;5.906;2024-01-06T01:10:37;3.10;99.90
29817;DHT22;16805;52.956;5.906;2024-01-06T01:13:24;3.10;99.90
29817;DHT22;16805;52.956;5.906;2024-01-06T01:15:54;3.00;99.90
29817;DHT22;16805;52.956;5.906;2024-01-06T01:18:35;3.00;99.90
29817;DHT22;16805;52.956;5.906;2024-01-06T01:21:31;3.00;99.90
29817;DHT22;16805;52.956;5.906;2024-01-06T01:24:00;3.00;99.90
29817;DHT22;16805;52.956;5.906;2024-01-06T01:26:48;2.90;99.90
29817;DHT22;16805;52.956;5.906;2024-01-06T01:29:20;2.90;99.90
29817;DHT22;16805;52.956;5.906;2024-01-06T01:31:49;2.90;99.90
29817;DHT22;16805;52.956;5.906;2024-01-06T01:34:23;2.90;99.90
29817;DHT22;16805;52.956;5.906;2024-01-06T01:39:49;2.80;99.90
29817;DHT22;16805;52.956;5.906;2024-01-06T01:42:36;2.80;99.90
29817;DHT22;16805;52.956;5.906;2024-01-06T01:45:31;2.80;99.90
29817;DHT22;16805;52.956;5.906;2024-01-06T01:48:11;2.80;99.90
29817;DHT22;16805;52.956;5.906;2024-01-06T01:50:40;2.80;99.90
29817;DHT22;16805;52.956;5.906;2024-01-06T01:53:16;2.80;99.90
29817;DHT22;16805;52.956;5.906;2024-01-06T01:56:03;2.80;99.90
29817;DHT22;16805;52.956;5.906;2024-01-06T01:58:41;2.70;99.90
29817;DHT22;16805;52.956;5.906;2024-01-06T02:01:29;2.70;99.90
29817;DHT22;16805;52.956;5.906;2024-01-06T02:09:37;2.60;99.90
29817;DHT22;16805;52.956;5.906;2024-01-06T02:12:17;2.60;99.90
29817;DHT22;16805;52.956;5.906;2024-01-06T02:15:03;2.60;99.90
29817;DHT22;16805;52.956;5.906;2024-01-06T02:17:38;2.50;99.90
29817;DHT22;16805;52.956;5.906;2024-01-06T02:20:34;2.50;99.90
29817;DHT22;16805;52.956;5.906;2024-01-06T02:23:52;2.50;99.90
29817;DHT22;16805;52.956;5.906;2024-01-06T02:26:29;2.50;99.90
29817;DHT22;16805;52.956;5.906;2024-01-06T02:29:24;2.40;99.90
29817;DHT22;16805;52.956;5.906;2024-01-06T02:31:53;2.40;99.90
29817;DHT22;16805;52.956;5.906;2024-01-06T02:34:41;2.50;99.90
29817;DHT22;16805;52.956;5.906;2024-01-06T02:40:26;2.50;99.90
29817;DHT22;16805;52.956;5.906;2024-01-06T02:43:24;2.50;99.90
29817;DHT22;16805;52.956;5.906;2024-01-06T02:48:56;2.40;99.90
29817;DHT22;16805;52.956;5.906;2024-01-06T02:51:27;2.40;99.90
29817;DHT22;16805;52.956;5.906;2024-01-06T02:54:29;2.40;99.90
29817;DHT22;16805;52.956;5.906;2024-01-06T02:57:24;2.40;99.90
29817;DHT22;16805;52.956;5.906;2024-01-06T03:00:02;2.40;99.90
29817;DHT22;16805;52.956;5.906;2024-01-06T03:02:34;2.40;99.90
29817;DHT22;16805;52.956;5.906;2024-01-06T03:05:22;2.30;99.90
29817;DHT22;16805;52.956;5.906;2024-01-06T03:08:13;2.40;99.90
29817;DHT22;16805;52.956;5.906;2024-01-06T03:10:56;2.30;99.90
29817;DHT22;16805;52.956;5.906;2024-01-06T03:13:33;2.30;99.90
29817;DHT22;16805;52.956;5.906;2024-01-06T03:16:17;2.30;99.90
29817;DHT22;16805;52.956;5.906;2024-01-06T03:18:49;2.30;99.90
29817;DHT22;16805;52.956;5.906;2024-01-06T03:21:29;2.30;99.90
29817;DHT22;16805;52.956;5.906;2024-01-06T03:24:23;2.30;99.90
29817;DHT22;16805;52.956;5.906;2024-01-06T03:27:01;2.30;99.90
29817;DHT22;16805;52.956;5.906;2024-01-06T03:33:17;2.30;99.90
29817;DHT22;16805;52.956;5.906;2024-01-06T03:36:03;2.30;99.90
29817;DHT22;16805;52.956;5.906;2024-01-06T03:38:34;2.30;99.90
29817;DHT22;16805;52.956;5.906;2024-01-06T03:41:01;2.30;99.90
29817;DHT22;16805;52.956;5.906;2024-01-06T03:43:33;2.30;99.90
29817;DHT22;16805;52.956;5.906;2024-01-06T03:46:05;2.30;99.90
29817;DHT22;16805;52.956;5.906;2024-01-06T03:48:52;2.30;99.90
29817;DHT22;16805;52.956;5.906;2024-01-06T03:51:53;2.30;99.90
29817;DHT22;16805;52.956;5.906;2024-01-06T03:57:47;2.30;99.90
29817;DHT22;16805;52.956;5.906;2024-01-06T04:00:44;2.20;99.90
29817;DHT22;16805;52.956;5.906;2024-01-06T04:03:21;2.20;99.90
29817;DHT22;16805;52.956;5.906;2024-01-06T04:06:03;2.30;99.90
29817;DHT22;16805;52.956;5.906;2024-01-06T04:08:45;2.30;99.90
29817;DHT22;16805;52.956;5.906;2024-01-06T04:14:33;2.20;99.90
29817;DHT22;16805;52.956;5.906;2024-01-06T04:17:02;2.30;99.90
29817;DHT22;16805;52.956;5.906;2024-01-06T04:20:01;2.20;99.90
29817;DHT22;16805;52.956;5.906;2024-01-06T04:22:30;2.20;99.90
29817;DHT22;16805;52.956;5.906;2024-01-06T04:25:34;2.30;99.90
29817;DHT22;16805;52.956;5.906;2024-01-06T04:28:26;2.30;99.90
29817;DHT22;16805;52.956;5.906;2024-01-06T04:34:18;2.20;99.90
29817;DHT22;16805;52.956;5.906;2024-01-06T04:36:44;2.20;99.90
29817;DHT22;16805;52.956;5.906;2024-01-06T04:39:14;2.20;99.90
29817;DHT22;16805;52.956;5.906;2024-01-06T04:41:41;2.20;99.90
29817;DHT22;16805;52.956;5.906;2024-01-06T04:44:08;2.20;99.90
29817;DHT22;16805;52.956;5.906;2024-01-06T04:46:48;2.20;99.90
29817;DHT22;16805;52.956;5.906;2024-01-06T04:49:38;2.20;99.90
29817;DHT22;16805;52.956;5.906;2024-01-06T04:52:04;2.20;99.90
29817;DHT22;16805;52.956;5.906;2024-01-06T04:54:36;2.20;99.90
29817;DHT22;16805;52.956;5.906;2024-01-06T04:57:17;2.20;99.90
29817;DHT22;16805;52.956;5.906;2024-01-06T04:59:44;2.20;99.90
29817;DHT22;16805;52.956;5.906;2024-01-06T05:02:41;2.20;99.90
29817;DHT22;16805;52.956;5.906;2024-01-06T05:05:09;2.20;99.90
29817;DHT22;16805;52.956;5.906;2024-01-06T05:07:59;2.10;99.90
29817;DHT22;16805;52.956;5.906;2024-01-06T05:10:38;2.10;99.90
29817;DHT22;16805;52.956;5.906;2024-01-06T05:26:42;2.20;99.90
29817;DHT22;16805;52.956;5.906;2024-01-06T05:29:41;2.20;99.90
29817;DHT22;16805;52.956;5.906;2024-01-06T05:35:43;2.20;99.90
29817;DHT22;16805;52.956;5.906;2024-01-06T05:38:40;2.20;99.90
29817;DHT22;16805;52.956;5.906;2024-01-06T05:41:19;2.20;99.90
29817;DHT22;16805;52.956;5.906;2024-01-06T05:44:11;2.20;99.90
29817;DHT22;16805;52.956;5.906;2024-01-06T05:46:41;2.20;99.90
29817;DHT22;16805;52.956;5.906;2024-01-06T05:49:16;2.20;99.90
29817;DHT22;16805;52.956;5.906;2024-01-06T05:58:33;2.20;99.90
29817;DHT22;16805;52.956;5.906;2024-01-06T06:01:19;2.20;99.90
29817;DHT22;16805;52.956;5.906;2024-01-06T06:04:06;2.20;99.90
29817;DHT22;16805;52.956;5.906;2024-01-06T06:13:52;2.20;99.90
29817;DHT22;16805;52.956;5.906;2024-01-06T06:16:37;2.20;99.90
29817;DHT22;16805;52.956;5.906;2024-01-06T06:19:04;2.20;99.90
29817;DHT22;16805;52.956;5.906;2024-01-06T06:21:54;2.20;99.90
29817;DHT22;16805;52.956;5.906;2024-01-06T06:24:52;2.20;99.90
29817;DHT22;16805;52.956;5.906;2024-01-06T06:27:28;2.20;99.90
29817;DHT22;16805;52.956;5.906;2024-01-06T06:30:28;2.30;99.90
29817;DHT22;16805;52.956;5.906;2024-01-06T06:33:15;2.20;99.90
29817;DHT22;16805;52.956;5.906;2024-01-06T06:45:48;2.30;99.90
29817;DHT22;16805;52.956;5.906;2024-01-06T06:48:26;2.30;99.90
29817;DHT22;16805;52.956;5.906;2024-01-06T06:51:19;2.30;99.90
29817;DHT22;16805;52.956;5.906;2024-01-06T06:53:57;2.30;99.90
29817;DHT22;16805;52.956;5.906;2024-01-06T06:56:51;2.30;99.90
29817;DHT22;16805;52.956;5.906;2024-01-06T06:59:36;2.30;99.90
29817;DHT22;16805;52.956;5.906;2024-01-06T07:02:08;2.40;99.90
29817;DHT22;16805;52.956;5.906;2024-01-06T07:04:46;2.40;99.90
29817;DHT22;16805;52.956;5.906;2024-01-06T07:07:33;2.40;99.90
29817;DHT22;16805;52.956;5.906;2024-01-06T07:10:21;2.30;99.90
29817;DHT22;16805;52.956;5.906;2024-01-06T07:12:57;2.40;99.90
29817;DHT22;16805;52.956;5.906;2024-01-06T07:15:58;2.40;99.90
29817;DHT22;16805;52.956;5.906;2024-01-06T07:18:29;2.40;99.90
29817;DHT22;16805;52.956;5.906;2024-01-06T07:21:08;2.40;99.90
29817;DHT22;16805;52.956;5.906;2024-01-06T07:23:51;2.30;99.90
29817;DHT22;16805;52.956;5.906;2024-01-06T07:26:39;2.30;99.90
29817;DHT22;16805;52.956;5.906;2024-01-06T07:29:10;2.40;99.90
29817;DHT22;16805;52.956;5.906;2024-01-06T07:31:57;2.40;99.90
29817;DHT22;16805;52.956;5.906;2024-01-06T07:34:25;2.30;99.90
29817;DHT22;16805;52.956;5.906;2024-01-06T07:36:55;2.40;99.90
29817;DHT22;16805;52.956;5.906;2024-01-06T07:39:31;2.30;99.90
29817;DHT22;16805;52.956;5.906;2024-01-06T07:42:02;2.30;99.90
29817;DHT22;16805;52.956;5.906;2024-01-06T07:44:59;2.30;99.90
29817;DHT22;16805;52.956;5.906;2024-01-06T07:47:36;2.40;99.90
29817;DHT22;16805;52.956;5.906;2024-01-06T07:50:09;2.40;99.90
29817;DHT22;16805;52.956;5.906;2024-01-06T07:52:38;2.30;99.90
29817;DHT22;16805;52.956;5.906;2024-01-06T07:55:08;2.40;99.90
29817;DHT22;16805;52.956;5.906;2024-01-06T07:57:39;2.30;99.90
29817;DHT22;16805;52.956;5.906;2024-01-06T08:00:20;2.30;99.90
29817;DHT22;16805;52.956;5.906;2024-01-06T08:02:53;2.40;99.90
29817;DHT22;16805;52.956;5.906;2024-01-06T08:05:25;2.30;99.90
29817;DHT22;16805;52.956;5.906;2024-01-06T08:08:01;2.40;99.90
29817;DHT22;16805;52.956;5.906;2024-01-06T08:10:36;2.40;99.90
29817;DHT22;16805;52.956;5.906;2024-01-06T08:13:08;2.40;99.90
29817;DHT22;16805;52.956;5.906;2024-01-06T08:15:55;2.40;99.90
29817;DHT22;16805;52.956;5.906;2024-01-06T08:18:23;2.40;99.90
29817;DHT22;16805;52.956;5.906;2024-01-06T08:21:10;2.40;99.90
29817;DHT22;16805;52.956;5.906;2024-01-06T08:23:57;2.40;99.90
29817;DHT22;16805;52.956;5.906;2024-01-06T08:29:23;2.40;99.90
29817;DHT22;16805;52.956;5.906;2024-01-06T08:31:50;2.40;99.90
29817;DHT22;16805;52.956;5.906;2024-01-06T08:34:24;2.40;99.90
29817;DHT22;16805;52.956;5.906;2024-01-06T08:36:56;2.40;99.90
29817;DHT22;16805;52.956;5.906;2024-01-06T08:39:37;2.40;99.90
29817;DHT22;16805;52.956;5.906;2024-01-06T08:42:08;2.40;99.90
29817;DHT22;16805;52.956;5.906;2024-01-06T08:44:43;2.40;99.90
29817;DHT22;16805;52.956;5.906;2024-01-06T08:47:11;2.40;99.90
29817;DHT22;16805;52.956;5.906;2024-01-06T08:49:41;2.40;99.90
29817;DHT22;16805;52.956;5.906;2024-01-06T08:52:16;2.40;99.90
29817;DHT22;16805;52.956;5.906;2024-01-06T08:54:48;2.50;99.90
29817;DHT22;16805;52.956;5.906;2024-01-06T08:57:18;2.50;99.90
29817;DHT22;16805;52.956;5.906;2024-01-06T08:59:45;2.50;99.90
29817;DHT22;16805;52.956;5.906;2024-01-06T09:02:11;2.50;99.90
29817;DHT22;16805;52.956;5.906;2024-01-06T09:05:02;2.50;99.90
29817;DHT22;16805;52.956;5.906;2024-01-06T09:07:28;2.60;99.90
29817;DHT22;16805;52.956;5.906;2024-01-06T09:09:57;2.50;99.90
29817;DHT22;16805;52.956;5.906;2024-01-06T09:12:38;2.50;99.90
29817;DHT22;16805;52.956;5.906;2024-01-06T09:15:04;2.50;99.90
29817;DHT22;16805;52.956;5.906;2024-01-06T09:17:34;2.60;99.90
29817;DHT22;16805;52.956;5.906;2024-01-06T09:20:04;2.60;99.90
29817;DHT22;16805;52.956;5.906;2024-01-06T09:22:31;2.50;99.90
29817;DHT22;16805;52.956;5.906;2024-01-06T09:25:04;2.60;99.90
29817;DHT22;16805;52.956;5.906;2024-01-06T09:27:36;2.60;99.90
29817;DHT22;16805;52.956;5.906;2024-01-06T09:30:11;2.60;99.90
29817;DHT22;16805;52.956;5.906;2024-01-06T09:32:41;2.60;99.90
29817;DHT22;16805;52.956;5.906;2024-01-06T09:35:10;2.60;99.90
29817;DHT22;16805;52.956;5.906;2024-01-06T09:37:52;2.60;99.90
29817;DHT22;16805;52.956;5.906;2024-01-06T09:40:27;2.60;99.90
29817;DHT22;16805;52.956;5.906;2024-01-06T09:43:00;2.60;99.90
29817;DHT22;16805;52.956;5.906;2024-01-06T09:45:31;2.60;99.90
29817;DHT22;16805;52.956;5.906;2024-01-06T09:48:20;2.60;99.90
29817;DHT22;16805;52.956;5.906;2024-01-06T09:50:56;2.60;99.90
29817;DHT22;16805;52.956;5.906;2024-01-06T09:53:33;2.70;99.90
29817;DHT22;16805;52.956;5.906;2024-01-06T09:56:02;2.70;99.90
29817;DHT22;16805;52.956;5.906;2024-01-06T09:58:38;2.60;99.90
29817;DHT22;16805;52.956;5.906;2024-01-06T10:01:11;2.70;99.90
29817;DHT22;16805;52.956;5.906;2024-01-06T10:03:40;2.60;99.90
29817;DHT22;16805;52.956;5.906;2024-01-06T10:06:16;2.60;99.90
29817;DHT22;16805;52.956;5.906;2024-01-06T10:08:49;2.60;99.90
29817;DHT22;16805;52.956;5.906;2024-01-06T10:11:18;2.60;99.90
29817;DHT22;16805;52.956;5.906;2024-01-06T10:13:45;2.60;99.90
29817;DHT22;16805;52.956;5.906;2024-01-06T10:16:10;2.60;99.90
29817;DHT22;16805;52.956;5.906;2024-01-06T10:18:45;2.60;99.90
29817;DHT22;16805;52.956;5.906;2024-01-06T10:21:35;2.70;99.90
29817;DHT22;16805;52.956;5.906;2024-01-06T10:24:08;2.60;99.90
29817;DHT22;16805;52.956;5.906;2024-01-06T10:26:39;2.60;99.90
29817;DHT22;16805;52.956;5.906;2024-01-06T10:29:21;2.60;99.90
29817;DHT22;16805;52.956;5.906;2024-01-06T10:32:31;2.70;99.90
29817;DHT22;16805;52.956;5.906;2024-01-06T10:35:02;2.70;99.90
29817;DHT22;16805;52.956;5.906;2024-01-06T10:37:34;2.70;99.90
29817;DHT22;16805;52.956;5.906;2024-01-06T10:40:15;2.70;99.90
29817;DHT22;16805;52.956;5.906;2024-01-06T10:42:45;2.70;99.90
29817;DHT22;16805;52.956;5.906;2024-01-06T10:45:18;2.70;99.90
29817;DHT22;16805;52.956;5.906;2024-01-06T10:47:44;2.70;99.90
29817;DHT22;16805;52.956;5.906;2024-01-06T10:50:18;2.70;99.90
29817;DHT22;16805;52.956;5.906;2024-01-06T10:53:07;2.70;99.90
29817;DHT22;16805;52.956;5.906;2024-01-06T10:55:39;2.70;99.90
29817;DHT22;16805;52.956;5.906;2024-01-06T10:58:12;2.70;99.90
29817;DHT22;16805;52.956;5.906;2024-01-06T11:00:42;2.70;99.90
29817;DHT22;16805;52.956;5.906;2024-01-06T11:03:17;2.70;99.90
29817;DHT22;16805;52.956;5.906;2024-01-06T11:05:56;2.70;99.90
29817;DHT22;16805;52.956;5.906;2024-01-06T11:08:29;2.70;99.90
29817;DHT22;16805;52.956;5.906;2024-01-06T11:10:59;2.70;99.90
29817;DHT22;16805;52.956;5.906;2024-01-06T11:13:32;2.70;99.90
29817;DHT22;16805;52.956;5.906;2024-01-06T11:16:01;2.70;99.90
29817;DHT22;16805;52.956;5.906;2024-01-06T11:18:42;2.60;99.90
29817;DHT22;16805;52.956;5.906;2024-01-06T11:21:20;2.70;99.90
29817;DHT22;16805;52.956;5.906;2024-01-06T11:26:44;2.70;99.90
29817;DHT22;16805;52.956;5.906;2024-01-06T11:29:22;2.70;99.90
29817;DHT22;16805;52.956;5.906;2024-01-06T11:34:51;2.70;99.90
29817;DHT22;16805;52.956;5.906;2024-01-06T11:37:23;2.70;99.90
29817;DHT22;16805;52.956;5.906;2024-01-06T11:39:50;2.70;99.90
29817;DHT22;16805;52.956;5.906;2024-01-06T11:42:32;2.70;99.90
29817;DHT22;16805;52.956;5.906;2024-01-06T11:45:04;2.70;99.90
29817;DHT22;16805;52.956;5.906;2024-01-06T11:50:40;2.70;99.90
29817;DHT22;16805;52.956;5.906;2024-01-06T11:53:14;2.70;99.90
29817;DHT22;16805;52.956;5.906;2024-01-06T11:55:50;2.80;99.90
29817;DHT22;16805;52.956;5.906;2024-01-06T11:58:19;2.70;99.90
29817;DHT22;16805;52.956;5.906;2024-01-06T12:01:04;2.80;99.90
29817;DHT22;16805;52.956;5.906;2024-01-06T12:03:31;2.80;99.90
29817;DHT22;16805;52.956;5.906;2024-01-06T12:06:03;2.80;99.90
29817;DHT22;16805;52.956;5.906;2024-01-06T12:08:33;2.80;99.90
29817;DHT22;16805;52.956;5.906;2024-01-06T12:11:04;2.80;99.90
29817;DHT22;16805;52.956;5.906;2024-01-06T12:13:31;2.80;99.90
29817;DHT22;16805;52.956;5.906;2024-01-06T12:16:17;2.80;99.90
29817;DHT22;16805;52.956;5.906;2024-01-06T12:18:44;2.80;99.90
29817;DHT22;16805;52.956;5.906;2024-01-06T12:21:14;2.80;99.90
29817;DHT22;16805;52.956;5.906;2024-01-06T12:23:40;2.80;99.90
29817;DHT22;16805;52.956;5.906;2024-01-06T12:26:13;2.80;99.90
29817;DHT22;16805;52.956;5.906;2024-01-06T12:28:47;2.80;99.90
29817;DHT22;16805;52.956;5.906;2024-01-06T12:31:22;2.80;99.90
29817;DHT22;16805;52.956;5.906;2024-01-06T12:33:59;2.80;99.90
29817;DHT22;16805;52.956;5.906;2024-01-06T12:36:29;2.80;99.90
29817;DHT22;16805;52.956;5.906;2024-01-06T12:38:58;2.90;99.90
29817;DHT22;16805;52.956;5.906;2024-01-06T12:41:27;2.90;99.90
29817;DHT22;16805;52.956;5.906;2024-01-06T12:43:57;2.90;99.90
29817;DHT22;16805;52.956;5.906;2024-01-06T12:46:27;2.90;99.90
29817;DHT22;16805;52.956;5.906;2024-01-06T12:48:57;2.90;99.90
29817;DHT22;16805;52.956;5.906;2024-01-06T12:51:32;2.90;99.90
29817;DHT22;16805;52.956;5.906;2024-01-06T12:54:07;2.90;99.90
29817;DHT22;16805;52.956;5.906;2024-01-06T12:56:42;2.90;99.90
29817;DHT22;16805;52.956;5.906;2024-01-06T12:59:08;2.90;99.90
29817;DHT22;16805;52.956;5.906;2024-01-06T13:01:55;2.90;99.90
29817;DHT22;16805;52.956;5.906;2024-01-06T13:04:22;2.90;99.90
29817;DHT22;16805;52.956;5.906;2024-01-06T13:06:54;2.90;99.90
29817;DHT22;16805;52.956;5.906;2024-01-06T13:09:32;2.90;99.90
29817;DHT22;16805;52.956;5.906;2024-01-06T13:11:59;2.90;99.90
29817;DHT22;16805;52.956;5.906;2024-01-06T13:14:29;2.90;99.90
29817;DHT22;16805;52.956;5.906;2024-01-06T13:16:58;2.90;99.90
29817;DHT22;16805;52.956;5.906;2024-01-06T13:19:28;2.90;99.90
29817;DHT22;16805;52.956;5.906;2024-01-06T13:21:58;2.90;99.90
29817;DHT22;16805;52.956;5.906;2024-01-06T13:24:28;2.90;99.90
29817;DHT22;16805;52.956;5.906;2024-01-06T13:27:00;2.90;99.90
29817;DHT22;16805;52.956;5.906;2024-01-06T13:29:32;2.90;99.90
29817;DHT22;16805;52.956;5.906;2024-01-06T13:31:59;2.90;99.90
29817;DHT22;16805;52.956;5.906;2024-01-06T13:34:26;2.90;99.90
29817;DHT22;16805;52.956;5.906;2024-01-06T13:36:58;2.90;99.90
29817;DHT22;16805;52.956;5.906;2024-01-06T13:39:26;2.80;99.90
29817;DHT22;16805;52.956;5.906;2024-01-06T13:42:02;2.80;99.90
29817;DHT22;16805;52.956;5.906;2024-01-06T13:45:17;2.80;99.90
29817;DHT22;16805;52.956;5.906;2024-01-06T13:47:58;2.80;99.90
29817;DHT22;16805;52.956;5.906;2024-01-06T13:50:27;2.80;99.90
29817;DHT22;16805;52.956;5.906;2024-01-06T13:52:54;2.80;99.90
29817;DHT22;16805;52.956;5.906;2024-01-06T13:55:27;2.80;99.90
29817;DHT22;16805;52.956;5.906;2024-01-06T13:57:54;2.80;99.90
29817;DHT22;16805;52.956;5.906;2024-01-06T14:00:29;2.80;99.90
29817;DHT22;16805;52.956;5.906;2024-01-06T14:02:56;2.80;99.90
29817;DHT22;16805;52.956;5.906;2024-01-06T14:05:26;2.80;99.90
29817;DHT22;16805;52.956;5.906;2024-01-06T14:07:53;2.80;99.90
29817;DHT22;16805;52.956;5.906;2024-01-06T14:10:25;2.70;99.90
29817;DHT22;16805;52.956;5.906;2024-01-06T14:12:54;2.70;99.90
29817;DHT22;16805;52.956;5.906;2024-01-06T14:15:34;2.70;99.90
29817;DHT22;16805;52.956;5.906;2024-01-06T14:18:02;2.70;99.90
29817;DHT22;16805;52.956;5.906;2024-01-06T14:20:31;2.70;99.90
29817;DHT22;16805;52.956;5.906;2024-01-06T14:23:04;2.70;99.90
29817;DHT22;16805;52.956;5.906;2024-01-06T14:25:33;2.60;99.90
29817;DHT22;16805;52.956;5.906;2024-01-06T14:28:03;2.60;99.90
29817;DHT22;16805;52.956;5.906;2024-01-06T14:30:40;2.70;99.90
29817;DHT22;16805;52.956;5.906;2024-01-06T14:33:06;2.60;99.90
29817;DHT22;16805;52.956;5.906;2024-01-06T14:35:40;2.60;99.90
29817;DHT22;16805;52.956;5.906;2024-01-06T14:38:23;2.60;99.90
29817;DHT22;16805;52.956;5.906;2024-01-06T14:40:49;2.60;99.90
29817;DHT22;16805;52.956;5.906;2024-01-06T14:51:29;2.50;99.90
29817;DHT22;16805;52.956;5.906;2024-01-06T15:05:31;2.50;99.90
29817;DHT22;16805;52.956;5.906;2024-01-06T15:07:57;2.50;99.90
29817;DHT22;16805;52.956;5.906;2024-01-06T15:10:34;2.50;99.90
29817;DHT22;16805;52.956;5.906;2024-01-06T15:13:00;2.40;99.90
29817;DHT22;16805;52.956;5.906;2024-01-06T15:15:26;2.40;99.90
29817;DHT22;16805;52.956;5.906;2024-01-06T15:17:52;2.40;99.90
29817;DHT22;16805;52.956;5.906;2024-01-06T15:20:17;2.40;99.90
29817;DHT22;16805;52.956;5.906;2024-01-06T15:22:43;2.40;99.90
29817;DHT22;16805;52.956;5.906;2024-01-06T15:25:09;2.30;99.90
29817;DHT22;16805;52.956;5.906;2024-01-06T15:27:53;2.30;99.90
29817;DHT22;16805;52.956;5.906;2024-01-06T15:30:19;2.20;99.90
29817;DHT22;16805;52.956;5.906;2024-01-06T15:32:49;2.20;99.90
29817;DHT22;16805;52.956;5.906;2024-01-06T15:35:41;2.20;99.90
29817;DHT22;16805;52.956;5.906;2024-01-06T15:38:16;2.20;99.90
29817;DHT22;16805;52.956;5.906;2024-01-06T15:40:42;2.20;99.90
29817;DHT22;16805;52.956;5.906;2024-01-06T15:43:07;2.20;99.90
29817;DHT22;16805;52.956;5.906;2024-01-06T15:45:33;2.10;99.90
29817;DHT22;16805;52.956;5.906;2024-01-06T15:48:01;2.10;99.90
29817;DHT22;16805;52.956;5.906;2024-01-06T15:50:27;2.10;99.90
29817;DHT22;16805;52.956;5.906;2024-01-06T15:52:52;2.10;99.90
29817;DHT22;16805;52.956;5.906;2024-01-06T15:55:18;2.10;99.90
29817;DHT22;16805;52.956;5.906;2024-01-06T15:57:44;2.10;99.90
29817;DHT22;16805;52.956;5.906;2024-01-06T16:00:10;2.00;99.90
29817;DHT22;16805;52.956;5.906;2024-01-06T16:02:36;2.00;99.90
29817;DHT22;16805;52.956;5.906;2024-01-06T16:05:05;2.00;99.90
29817;DHT22;16805;52.956;5.906;2024-01-06T16:07:32;2.00;99.90
29817;DHT22;16805;52.956;5.906;2024-01-06T16:09:58;1.90;99.90
29817;DHT22;16805;52.956;5.906;2024-01-06T16:12:24;1.90;99.90
29817;DHT22;16805;52.956;5.906;2024-01-06T16:14:55;1.90;99.90
29817;DHT22;16805;52.956;5.906;2024-01-06T16:17:21;1.90;99.90
29817;DHT22;16805;52.956;5.906;2024-01-06T16:19:48;1.80;99.90
29817;DHT22;16805;52.956;5.906;2024-01-06T16:22:14;1.80;99.90
29817;DHT22;16805;52.956;5.906;2024-01-06T16:24:40;1.80;99.90
29817;DHT22;16805;52.956;5.906;2024-01-06T16:27:07;1.80;99.90
29817;DHT22;16805;52.956;5.906;2024-01-06T16:29:35;1.80;99.90
29817;DHT22;16805;52.956;5.906;2024-01-06T16:32:03;1.80;99.90
29817;DHT22;16805;52.956;5.906;2024-01-06T16:34:32;1.80;99.90
29817;DHT22;16805;52.956;5.906;2024-01-06T16:36:58;1.80;99.90
29817;DHT22;16805;52.956;5.906;2024-01-06T16:39:24;1.80;99.90
29817;DHT22;16805;52.956;5.906;2024-01-06T16:41:52;1.80;99.90
29817;DHT22;16805;52.956;5.906;2024-01-06T16:44:18;1.70;99.90
29817;DHT22;16805;52.956;5.906;2024-01-06T16:46:44;1.70;99.90
29817;DHT22;16805;52.956;5.906;2024-01-06T16:49:09;1.70;99.90
29817;DHT22;16805;52.956;5.906;2024-01-06T16:51:35;1.70;99.90
29817;DHT22;16805;52.956;5.906;2024-01-06T16:54:02;1.70;99.90
29817;DHT22;16805;52.956;5.906;2024-01-06T16:56:32;1.60;99.90
29817;DHT22;16805;52.956;5.906;2024-01-06T16:59:03;1.60;99.90
29817;DHT22;16805;52.956;5.906;2024-01-06T17:01:35;1.50;99.90
29817;DHT22;16805;52.956;5.906;2024-01-06T17:04:04;1.50;99.90
29817;DHT22;16805;52.956;5.906;2024-01-06T17:06:29;1.50;99.90
29817;DHT22;16805;52.956;5.906;2024-01-06T17:08:55;1.50;99.90
29817;DHT22;16805;52.956;5.906;2024-01-06T17:11:27;1.50;99.90
29817;DHT22;16805;52.956;5.906;2024-01-06T17:13:56;1.50;99.90
29817;DHT22;16805;52.956;5.906;2024-01-06T17:16:26;1.40;99.90
29817;DHT22;16805;52.956;5.906;2024-01-06T17:18:55;1.40;99.90
29817;DHT22;16805;52.956;5.906;2024-01-06T17:21:25;1.40;99.90
29817;DHT22;16805;52.956;5.906;2024-01-06T17:23:52;1.40;99.90
29817;DHT22;16805;52.956;5.906;2024-01-06T17:26:18;1.40;99.90
29817;DHT22;16805;52.956;5.906;2024-01-06T17:28:44;1.40;99.90
29817;DHT22;16805;52.956;5.906;2024-01-06T17:31:10;1.40;99.90
29817;DHT22;16805;52.956;5.906;2024-01-06T17:33:37;1.40;99.90
29817;DHT22;16805;52.956;5.906;2024-01-06T17:36:03;1.40;99.90
29817;DHT22;16805;52.956;5.906;2024-01-06T17:38:29;1.40;99.90
29817;DHT22;16805;52.956;5.906;2024-01-06T17:40:55;1.40;99.90
29817;DHT22;16805;52.956;5.906;2024-01-06T17:43:21;1.40;99.90
29817;DHT22;16805;52.956;5.906;2024-01-06T17:45:46;1.40;99.90
29817;DHT22;16805;52.956;5.906;2024-01-06T17:48:12;1.40;99.90
29817;DHT22;16805;52.956;5.906;2024-01-06T17:50:40;1.40;99.90
29817;DHT22;16805;52.956;5.906;2024-01-06T17:53:06;1.30;99.90
29817;DHT22;16805;52.956;5.906;2024-01-06T17:55:31;1.30;99.90
29817;DHT22;16805;52.956;5.906;2024-01-06T17:57:59;1.30;99.90
29817;DHT22;16805;52.956;5.906;2024-01-06T18:00:24;1.20;99.90
29817;DHT22;16805;52.956;5.906;2024-01-06T18:02:51;1.30;99.90
29817;DHT22;16805;52.956;5.906;2024-01-06T18:05:17;1.20;99.90
29817;DHT22;16805;52.956;5.906;2024-01-06T18:07:43;1.20;99.90
29817;DHT22;16805;52.956;5.906;2024-01-06T18:10:09;1.20;99.90
29817;DHT22;16805;52.956;5.906;2024-01-06T18:12:36;1.20;99.90
29817;DHT22;16805;52.956;5.906;2024-01-06T18:15:02;1.20;99.90
29817;DHT22;16805;52.956;5.906;2024-01-06T18:17:29;1.20;99.90
29817;DHT22;16805;52.956;5.906;2024-01-06T18:19:55;1.10;99.90
29817;DHT22;16805;52.956;5.906;2024-01-06T18:22:22;1.20;99.90
29817;DHT22;16805;52.956;5.906;2024-01-06T18:24:48;1.20;99.90
29817;DHT22;16805;52.956;5.906;2024-01-06T18:27:14;1.10;99.90
29817;DHT22;16805;52.956;5.906;2024-01-06T18:29:39;1.10;99.90
29817;DHT22;16805;52.956;5.906;2024-01-06T18:32:05;1.10;99.90
29817;DHT22;16805;52.956;5.906;2024-01-06T18:34:32;1.10;99.90
29817;DHT22;16805;52.956;5.906;2024-01-06T18:36:59;1.10;99.90